Time;durP1;ratioP1;P1;durP2;ratioP2;P2;SDS_P1;SDS_P2;PMS_P1;PMS_P2;Temp;Humidity;BMP_temperature;BMP_pressure;BME280_temperature;BME280_humidity;BME280_pressure;Samples;Min_cycle;Max_cycle;Signal;HPM_P1;HPM_P2
2022/06/05 00:00:15;;;;;;;;;;;;;;;;;;347341;152;855991;-57
2022/06/05 00:01:17;;;;;;;;;;;;;;;;;;346329;155;856760;-57
2022/06/05 00:02:19;;;;;;;;;;;;;;;;;;347360;152;856093;-56
2022/06/05 00:03:21;;;;;;;;;;;;;;;;;;347565;155;858229;-58
2022/06/05 00:04:22;;;;;;;;;;;;;;;;;;345411;155;855922;-56
2022/06/05 00:05:23;;;;;;;;;;;;;;;;;;347949;152;857720;-57
2022/06/05 00:06:25;;;;;;;;;;;;;;;;;;345465;155;855971;-56
2022/06/05 00:07:26;;;;;;;;;;;;;;;;;;346715;155;855125;-57
2022/06/05 00:08:28;;;;;;;;;;;;;;;;;;347098;155;855954;-56
2022/06/05 00:09:29;;;;;;;;;;;;;;;;;;346373;155;856882;-56
2022/06/05 00:10:30;;;;;;;;;;;;;;;;;;347231;155;855763;-56
2022/06/05 00:11:32;;;;;;;;;;;;;;;;;;351591;153;856361;-56
2022/06/05 00:12:33;;;;;;;;;;;;;;;;;;344196;153;855806;-56
2022/06/05 00:13:35;;;;;;;;;;;;;;;;;;347136;153;855583;-56
2022/06/05 00:14:39;;;;;;;;;;;;;;;;;;346301;153;856289;-57
2022/06/05 00:15:41;;;;;;;;;;;;;;;;;;346790;155;855966;-57
2022/06/05 00:16:42;;;;;;;;;;;;;;;;;;351275;153;855844;-57
2022/06/05 00:17:43;;;;;;;;;;;;;;;;;;348071;155;855771;-56
2022/06/05 00:18:45;;;;;;;;;;;;;;;;;;353012;150;855883;-56
2022/06/05 00:19:46;;;;;;;;;;;;;;;;;;348099;153;855879;-55
2022/06/05 00:20:48;;;;;;;;;;;;;;;;;;348884;153;855855;-57
2022/06/05 00:21:49;;;;;;;;;;;;;;;;;;347200;153;855821;-56
2022/06/05 00:22:50;;;;;;;;;;;;;;;;;;346430;153;855798;-56
2022/06/05 00:23:52;;;;;;;;;;;;;;;;;;347149;154;856450;-56
2022/06/05 00:24:53;;;;;;;;;;;;;;;;;;347936;155;855878;-57
2022/06/05 00:25:55;;;;;;;;;;;;;;;;;;347934;155;856817;-56
2022/06/05 00:26:56;;;;;;;;;;;;;;;;;;347758;155;855851;-56
2022/06/05 00:27:57;;;;;;;;;;;;;;;;;;347005;152;857009;-56
2022/06/05 00:28:59;;;;;;;;;;;;;;;;;;346753;155;855949;-57
2022/06/05 00:30:00;;;;;;;;;;;;;;;;;;347228;155;857574;-56
2022/06/05 00:31:01;;;;;;;;;;;;;;;;;;347382;155;855938;-56
2022/06/05 00:32:03;;;;;;;;;;;;;;;;;;346645;155;857117;-59
2022/06/05 00:33:04;;;;;;;;;;;;;;;;;;345713;155;855737;-56
2022/06/05 00:34:05;;;;;;;;;;;;;;;;;;347279;155;856087;-56
2022/06/05 00:35:06;;;;;;;;;;;;;;;;;;346987;155;857603;-57
2022/06/05 00:36:08;;;;;;;;;;;;;;;;;;345640;152;856130;-56
2022/06/05 00:37:09;;;;;;;;;;;;;;;;;;346784;152;855816;-56
2022/06/05 00:38:12;;;;;;;;;;;;;;;;;;346374;152;856928;-56
2022/06/05 00:39:13;;;;;;;;;;;;;;;;;;347176;152;855854;-56
2022/06/05 00:40:14;;;;;;;;;;;;;;;;;;348275;155;857523;-56
2022/06/05 00:41:16;;;;;;;;;;;;;;;;;;346980;155;855827;-55
2022/06/05 00:42:17;;;;;;;;;;;;;;;;;;346194;155;855991;-56
2022/06/05 00:43:19;;;;;;;;;;;;;;;;;;348630;152;855841;-56
2022/06/05 00:44:20;;;;;;;;;;;;;;;;;;345952;155;857493;-56
2022/06/05 00:45:21;;;;;;;;;;;;;;;;;;347474;155;855892;-56
2022/06/05 00:46:23;;;;;;;;;;;;;;;;;;346392;155;856099;-55
2022/06/05 00:47:24;;;;;;;;;;;;;;;;;;346562;155;856009;-56
2022/06/05 00:48:25;;;;;;;;;;;;;;;;;;345929;155;856268;-56
2022/06/05 00:49:26;;;;;;;;;;;;;;;;;;346111;155;855853;-56
2022/06/05 00:50:28;;;;;;;;;;;;;;;;;;346908;155;858135;-56
2022/06/05 00:51:29;;;;;;;;;;;;;;;;;;348158;155;855911;-56
2022/06/05 00:52:30;;;;;;;;;;;;;;;;;;345925;155;855959;-56
2022/06/05 00:53:32;;;;;;;;;;;;;;;;;;345471;155;856059;-56
2022/06/05 00:54:33;;;;;;;;;;;;;;;;;;345548;155;855933;-56
2022/06/05 00:55:34;;;;;;;;;;;;;;;;;;346098;155;855818;-56
2022/06/05 00:56:36;;;;;;;;;;;;;;;;;;346848;155;857774;-56
2022/06/05 00:57:37;;;;;;;;;;;;;;;;;;346585;152;855127;-56
2022/06/05 00:58:39;;;;;;;;;;;;;;;;;;345640;155;856050;-56
2022/06/05 00:59:40;;;;;;;;;;;;;;;;;;346733;152;855817;-56
2022/06/05 01:00:42;;;;;;;;;;;;;;;;;;347377;152;855934;-56
2022/06/05 01:01:43;;;;;;;;;;;;;;;;;;346871;152;855839;-56
2022/06/05 01:02:44;;;;;;;;;;;;;;;;;;346136;155;856738;-55
2022/06/05 01:03:46;;;;;;;;;;;;;;;;;;347214;155;855860;-56
2022/06/05 01:04:48;;;;;;;;;;;;;;;;;;346253;155;856652;-56
2022/06/05 01:05:49;;;;;;;;;;;;;;;;;;346869;155;856350;-56
2022/06/05 01:06:51;;;;;;;;;;;;;;;;;;346675;152;855758;-59
2022/06/05 01:07:52;;;;;;;;;;;;;;;;;;345993;152;856411;-56
2022/06/05 01:08:53;;;;;;;;;;;;;;;;;;346415;155;855855;-55
2022/06/05 01:09:55;;;;;;;;;;;;;;;;;;345570;152;857153;-56
2022/06/05 01:10:56;;;;;;;;;;;;;;;;;;345587;155;855869;-56
2022/06/05 01:11:57;;;;;;;;;;;;;;;;;;347814;155;856013;-55
2022/06/05 01:12:59;;;;;;;;;;;;;;;;;;347453;152;855816;-56
2022/06/05 01:14:00;;;;;;;;;;;;;;;;;;345827;155;855386;-56
2022/06/05 01:15:01;;;;;;;;;;;;;;;;;;346149;155;855826;-56
2022/06/05 01:16:03;;;;;;;;;;;;;;;;;;347544;155;855683;-56
2022/06/05 01:17:04;;;;;;;;;;;;;;;;;;347149;152;855694;-56
2022/06/05 01:18:05;;;;;;;;;;;;;;;;;;348477;152;855837;-56
2022/06/05 01:19:07;;;;;;;;;;;;;;;;;;345922;155;856742;-56
2022/06/05 01:20:08;;;;;;;;;;;;;;;;;;347275;155;855884;-56
2022/06/05 01:21:10;;;;;;;;;;;;;;;;;;346310;152;857509;-56
2022/06/05 01:22:11;;;;;;;;;;;;;;;;;;348460;152;855864;-56
2022/06/05 01:23:13;;;;;;;;;;;;;;;;;;347959;155;856630;-56
2022/06/05 01:24:14;;;;;;;;;;;;;;;;;;345894;155;855979;-55
2022/06/05 01:25:16;;;;;;;;;;;;;;;;;;346698;155;857619;-56
2022/06/05 01:26:17;;;;;;;;;;;;;;;;;;347703;155;855880;-56
2022/06/05 01:27:19;;;;;;;;;;;;;;;;;;346950;155;855865;-57
2022/06/05 01:28:20;;;;;;;;;;;;;;;;;;346123;155;855896;-57
2022/06/05 01:29:21;;;;;;;;;;;;;;;;;;345580;155;855930;-56
2022/06/05 01:30:22;;;;;;;;;;;;;;;;;;345618;155;855840;-56
2022/06/05 01:31:24;;;;;;;;;;;;;;;;;;345825;152;855934;-56
2022/06/05 01:32:25;;;;;;;;;;;;;;;;;;346059;152;857734;-56
2022/06/05 01:33:26;;;;;;;;;;;;;;;;;;345828;152;856781;-56
2022/06/05 01:34:28;;;;;;;;;;;;;;;;;;347522;152;856146;-56
2022/06/05 01:35:29;;;;;;;;;;;;;;;;;;345883;152;857733;-57
2022/06/05 01:36:30;;;;;;;;;;;;;;;;;;346859;152;855841;-55
2022/06/05 01:37:31;;;;;;;;;;;;;;;;;;348273;155;855822;-56
2022/06/05 01:38:33;;;;;;;;;;;;;;;;;;346412;152;855738;-56
2022/06/05 01:39:34;;;;;;;;;;;;;;;;;;346592;155;856382;-57
2022/06/05 01:40:35;;;;;;;;;;;;;;;;;;347025;155;855817;-56
2022/06/05 01:41:37;;;;;;;;;;;;;;;;;;347478;155;856438;-56
2022/06/05 01:42:38;;;;;;;;;;;;;;;;;;347173;155;855815;-56
2022/06/05 01:43:39;;;;;;;;;;;;;;;;;;348294;152;856521;-56
2022/06/05 01:44:41;;;;;;;;;;;;;;;;;;348486;152;855878;-56
2022/06/05 01:45:44;;;;;;;;;;;;;;;;;;347727;152;855824;-56
2022/06/05 01:46:45;;;;;;;;;;;;;;;;;;346530;152;856382;-56
2022/06/05 01:47:47;;;;;;;;;;;;;;;;;;346124;155;857710;-57
2022/06/05 01:48:48;;;;;;;;;;;;;;;;;;348080;152;856200;-56
2022/06/05 01:49:49;;;;;;;;;;;;;;;;;;348628;152;855839;-56
2022/06/05 01:50:51;;;;;;;;;;;;;;;;;;347852;152;856871;-56
2022/06/05 01:51:52;;;;;;;;;;;;;;;;;;346841;152;857627;-56
2022/06/05 01:52:53;;;;;;;;;;;;;;;;;;347018;155;855782;-57
2022/06/05 01:53:55;;;;;;;;;;;;;;;;;;347091;155;856743;-56
2022/06/05 01:54:56;;;;;;;;;;;;;;;;;;346408;155;855839;-56
2022/06/05 01:55:57;;;;;;;;;;;;;;;;;;346011;155;857566;-56
2022/06/05 01:56:59;;;;;;;;;;;;;;;;;;347537;155;855771;-57
2022/06/05 01:58:00;;;;;;;;;;;;;;;;;;347991;155;857810;-56
2022/06/05 01:59:01;;;;;;;;;;;;;;;;;;346335;155;855956;-57
2022/06/05 02:00:03;;;;;;;;;;;;;;;;;;347994;155;855759;-56
2022/06/05 02:01:04;;;;;;;;;;;;;;;;;;348598;155;857959;-56
2022/06/05 02:02:05;;;;;;;;;;;;;;;;;;346002;155;855779;-56
2022/06/05 02:03:07;;;;;;;;;;;;;;;;;;346947;155;857213;-58
2022/06/05 02:04:08;;;;;;;;;;;;;;;;;;351381;152;855823;-57
2022/06/05 02:05:09;;;;;;;;;;;;;;;;;;348739;152;856675;-57
2022/06/05 02:06:11;;;;;;;;;;;;;;;;;;346446;152;854902;-56
2022/06/05 02:07:12;;;;;;;;;;;;;;;;;;353072;152;856010;-56
2022/06/05 02:08:14;;;;;;;;;;;;;;;;;;346390;155;855886;-56
2022/06/05 02:09:15;;;;;;;;;;;;;;;;;;350957;153;855896;-56
2022/06/05 02:10:17;;;;;;;;;;;;;;;;;;350676;151;855870;-55
2022/06/05 02:11:18;;;;;;;;;;;;;;;;;;346223;155;856431;-57
2022/06/05 02:12:19;;;;;;;;;;;;;;;;;;347757;152;855826;-57
2022/06/05 02:13:21;;;;;;;;;;;;;;;;;;347804;152;856351;-56
2022/06/05 02:14:22;;;;;;;;;;;;;;;;;;349124;152;855273;-58
2022/06/05 02:15:23;;;;;;;;;;;;;;;;;;345193;155;858448;-59
2022/06/05 02:16:24;;;;;;;;;;;;;;;;;;347752;155;855901;-56
2022/06/05 02:17:26;;;;;;;;;;;;;;;;;;347871;152;855962;-56
2022/06/05 02:18:27;;;;;;;;;;;;;;;;;;347512;155;856210;-56
2022/06/05 02:19:29;;;;;;;;;;;;;;;;;;348385;155;856551;-55
2022/06/05 02:20:30;;;;;;;;;;;;;;;;;;347739;155;855832;-56
2022/06/05 02:21:31;;;;;;;;;;;;;;;;;;345744;152;856055;-56
2022/06/05 02:22:33;;;;;;;;;;;;;;;;;;346179;155;855845;-55
2022/06/05 02:23:34;;;;;;;;;;;;;;;;;;349411;152;857439;-56
2022/06/05 02:24:35;;;;;;;;;;;;;;;;;;349804;152;855844;-58
2022/06/05 02:25:37;;;;;;;;;;;;;;;;;;350262;151;856280;-56
2022/06/05 02:26:39;;;;;;;;;;;;;;;;;;343251;154;855990;-56
2022/06/05 02:27:40;;;;;;;;;;;;;;;;;;346692;153;856754;-56
2022/06/05 02:28:41;;;;;;;;;;;;;;;;;;352145;150;856259;-55
2022/06/05 02:29:43;;;;;;;;;;;;;;;;;;346140;153;857174;-56
2022/06/05 02:30:44;;;;;;;;;;;;;;;;;;347139;155;855992;-56
2022/06/05 02:31:45;;;;;;;;;;;;;;;;;;347134;155;856227;-57
2022/06/05 02:32:47;;;;;;;;;;;;;;;;;;348187;155;855829;-56
2022/06/05 02:33:48;;;;;;;;;;;;;;;;;;345403;155;856999;-55
2022/06/05 02:34:50;;;;;;;;;;;;;;;;;;348005;155;855857;-55
2022/06/05 02:35:51;;;;;;;;;;;;;;;;;;348169;154;856452;-56
2022/06/05 02:36:53;;;;;;;;;;;;;;;;;;347128;154;855889;-55
2022/06/05 02:37:54;;;;;;;;;;;;;;;;;;350685;151;856292;-55
2022/06/05 02:38:55;;;;;;;;;;;;;;;;;;349697;154;855731;-58
2022/06/05 02:39:57;;;;;;;;;;;;;;;;;;348207;151;855242;-56
2022/06/05 02:40:58;;;;;;;;;;;;;;;;;;351977;151;855898;-55
2022/06/05 02:41:59;;;;;;;;;;;;;;;;;;347532;154;857480;-57
2022/06/05 02:43:01;;;;;;;;;;;;;;;;;;347859;154;855941;-56
2022/06/05 02:45:22;;;;;;;;;;;;;;;;;;349974;154;856735;-57
2022/06/05 02:46:24;;;;;;;;;;;;;;;;;;354352;151;855851;-56
2022/06/05 02:47:26;;;;;;;;;;;;;;;;;;346438;154;856042;-56
2022/06/05 02:48:27;;;;;;;;;;;;;;;;;;347078;154;855759;-55
2022/06/05 02:49:29;;;;;;;;;;;;;;;;;;349498;154;856004;-55
2022/06/05 02:50:30;;;;;;;;;;;;;;;;;;347330;153;857600;-57
2022/06/05 02:51:31;;;;;;;;;;;;;;;;;;348373;154;855826;-57
2022/06/05 02:52:33;;;;;;;;;;;;;;;;;;347186;153;855992;-55
2022/06/05 02:53:34;;;;;;;;;;;;;;;;;;348150;152;856185;-55
2022/06/05 02:54:35;;;;;;;;;;;;;;;;;;347669;154;855970;-57
2022/06/05 02:55:37;;;;;;;;;;;;;;;;;;348170;154;855802;-55
2022/06/05 02:56:38;;;;;;;;;;;;;;;;;;347765;151;856024;-56
2022/06/05 02:57:39;;;;;;;;;;;;;;;;;;350706;151;855827;-55
2022/06/05 02:58:40;;;;;;;;;;;;;;;;;;346743;154;856153;-54
2022/06/05 02:59:42;;;;;;;;;;;;;;;;;;345626;154;855847;-55
2022/06/05 03:03:27;;;;;;;;;;;;;;;;;;352206;150;856128;-55
2022/06/05 03:04:28;;;;;;;;;;;;;;;;;;351815;150;857423;-57
2022/06/05 03:05:29;;;;;;;;;;;;;;;;;;351350;153;855901;-57
2022/06/05 03:06:31;;;;;;;;;;;;;;;;;;350974;151;857536;-57
2022/06/05 03:07:32;;;;;;;;;;;;;;;;;;350462;153;855784;-55
2022/06/05 03:08:33;;;;;;;;;;;;;;;;;;352734;151;855564;-55
2022/06/05 03:09:35;;;;;;;;;;;;;;;;;;355211;150;855873;-56
2022/06/05 03:10:36;;;;;;;;;;;;;;;;;;351160;150;855642;-56
2022/06/05 03:11:38;;;;;;;;;;;;;;;;;;353143;150;855881;-55
2022/06/05 03:12:39;;;;;;;;;;;;;;;;;;352654;150;857409;-55
2022/06/05 03:13:41;;;;;;;;;;;;;;;;;;353023;150;855826;-55
2022/06/05 03:14:42;;;;;;;;;;;;;;;;;;351915;150;855724;-55
2022/06/05 03:15:43;;;;;;;;;;;;;;;;;;353422;150;855893;-55
2022/06/05 03:16:45;;;;;;;;;;;;;;;;;;352842;150;856595;-55
2022/06/05 03:17:46;;;;;;;;;;;;;;;;;;351682;150;855832;-56
2022/06/05 03:18:47;;;;;;;;;;;;;;;;;;351306;150;855818;-55
2022/06/05 03:19:49;;;;;;;;;;;;;;;;;;351854;150;855903;-55
2022/06/05 03:20:50;;;;;;;;;;;;;;;;;;347314;152;856732;-55
2022/06/05 03:21:51;;;;;;;;;;;;;;;;;;352388;150;855808;-56
2022/06/05 03:22:53;;;;;;;;;;;;;;;;;;348049;152;857763;-55
2022/06/05 03:23:54;;;;;;;;;;;;;;;;;;355748;149;855785;-55
2022/06/05 03:24:56;;;;;;;;;;;;;;;;;;349639;152;856502;-56
2022/06/05 03:25:57;;;;;;;;;;;;;;;;;;354762;150;855117;-57
2022/06/05 03:26:58;;;;;;;;;;;;;;;;;;352392;150;856830;-56
2022/06/05 03:27:59;;;;;;;;;;;;;;;;;;349957;150;856357;-56
2022/06/05 03:29:02;;;;;;;;;;;;;;;;;;353002;151;855054;-58
2022/06/05 03:30:04;;;;;;;;;;;;;;;;;;353778;151;855164;-58
2022/06/05 03:31:05;;;;;;;;;;;;;;;;;;352636;152;855053;-56
2022/06/05 03:32:06;;;;;;;;;;;;;;;;;;352362;152;855071;-56
2022/06/05 03:33:08;;;;;;;;;;;;;;;;;;355126;149;855124;-56
2022/06/05 03:34:09;;;;;;;;;;;;;;;;;;353652;152;855372;-55
2022/06/05 03:35:10;;;;;;;;;;;;;;;;;;354033;149;854943;-56
2022/06/05 03:36:12;;;;;;;;;;;;;;;;;;353620;149;854932;-55
2022/06/05 03:37:13;;;;;;;;;;;;;;;;;;347370;155;854962;-55
2022/06/05 03:38:15;;;;;;;;;;;;;;;;;;350798;152;855422;-55
2022/06/05 03:39:16;;;;;;;;;;;;;;;;;;353939;149;854967;-56
2022/06/05 03:40:17;;;;;;;;;;;;;;;;;;352972;149;854951;-54
2022/06/05 03:41:19;;;;;;;;;;;;;;;;;;354347;149;855019;-55
2022/06/05 03:42:20;;;;;;;;;;;;;;;;;;350012;152;854907;-54
2022/06/05 03:43:22;;;;;;;;;;;;;;;;;;356621;149;855075;-55
2022/06/05 03:44:24;;;;;;;;;;;;;;;;;;349476;152;855179;-55
2022/06/05 03:45:25;;;;;;;;;;;;;;;;;;352295;150;855963;-55
2022/06/05 03:46:27;;;;;;;;;;;;;;;;;;355741;150;855030;-56
2022/06/05 03:47:28;;;;;;;;;;;;;;;;;;350330;153;855907;-56
2022/06/05 03:48:29;;;;;;;;;;;;;;;;;;351949;150;854869;-56
2022/06/05 03:49:31;;;;;;;;;;;;;;;;;;350972;153;857529;-56
2022/06/05 03:50:32;;;;;;;;;;;;;;;;;;351193;153;855891;-56
2022/06/05 03:51:34;;;;;;;;;;;;;;;;;;349409;153;855799;-56
2022/06/05 03:52:35;;;;;;;;;;;;;;;;;;350835;150;855792;-56
2022/06/05 03:53:36;;;;;;;;;;;;;;;;;;351840;153;856438;-56
2022/06/05 03:54:38;;;;;;;;;;;;;;;;;;348761;153;855920;-57
2022/06/05 03:55:40;;;;;;;;;;;;;;;;;;350537;153;857739;-56
2022/06/05 03:56:41;;;;;;;;;;;;;;;;;;351552;150;855798;-56
2022/06/05 03:57:42;;;;;;;;;;;;;;;;;;351224;150;857516;-55
2022/06/05 03:58:44;;;;;;;;;;;;;;;;;;353135;150;855769;-55
2022/06/05 03:59:48;;;;;;;;;;;;;;;;;;348601;153;856882;-58
2022/06/05 04:00:49;;;;;;;;;;;;;;;;;;350619;151;855798;-56
2022/06/05 04:01:50;;;;;;;;;;;;;;;;;;350102;154;855843;-56
2022/06/05 04:02:53;;;;;;;;;;;;;;;;;;348807;151;856617;-56
2022/06/05 04:03:54;;;;;;;;;;;;;;;;;;347295;154;856760;-56
2022/06/05 04:04:55;;;;;;;;;;;;;;;;;;347861;154;855831;-57
2022/06/05 04:05:57;;;;;;;;;;;;;;;;;;348920;154;856888;-54
2022/06/05 04:06:58;;;;;;;;;;;;;;;;;;348672;154;855898;-56
2022/06/05 04:07:59;;;;;;;;;;;;;;;;;;347638;154;856799;-59
2022/06/05 04:09:01;;;;;;;;;;;;;;;;;;348902;154;855915;-57
2022/06/05 04:10:02;;;;;;;;;;;;;;;;;;346869;154;856910;-59
2022/06/05 04:11:04;;;;;;;;;;;;;;;;;;348383;151;855945;-57
2022/06/05 04:12:05;;;;;;;;;;;;;;;;;;349336;154;856809;-57
2022/06/05 04:13:07;;;;;;;;;;;;;;;;;;344592;156;856038;-57
2022/06/05 04:14:08;;;;;;;;;;;;;;;;;;349031;152;857534;-54
2022/06/05 04:15:09;;;;;;;;;;;;;;;;;;352008;152;856223;-55
2022/06/05 04:16:11;;;;;;;;;;;;;;;;;;351871;149;857484;-54
2022/06/05 04:17:12;;;;;;;;;;;;;;;;;;353592;152;855750;-55
2022/06/05 04:18:14;;;;;;;;;;;;;;;;;;352106;149;857945;-55
2022/06/05 04:19:15;;;;;;;;;;;;;;;;;;353434;149;855773;-55
2022/06/05 04:20:16;;;;;;;;;;;;;;;;;;354591;152;856517;-55
2022/06/05 04:21:18;;;;;;;;;;;;;;;;;;353200;152;855852;-55
2022/06/05 04:22:19;;;;;;;;;;;;;;;;;;354738;152;856428;-55
2022/06/05 04:23:21;;;;;;;;;;;;;;;;;;353300;152;855835;-56
2022/06/05 04:24:22;;;;;;;;;;;;;;;;;;354912;149;856332;-54
2022/06/05 04:25:24;;;;;;;;;;;;;;;;;;351970;149;855970;-55
2022/06/05 04:26:25;;;;;;;;;;;;;;;;;;343148;156;855898;-55
2022/06/05 04:27:26;;;;;;;;;;;;;;;;;;340105;156;855822;-54
2022/06/05 04:28:28;;;;;;;;;;;;;;;;;;353639;152;855855;-56
2022/06/05 04:29:29;;;;;;;;;;;;;;;;;;353369;152;855831;-55
2022/06/05 04:30:30;;;;;;;;;;;;;;;;;;353561;149;855834;-54
2022/06/05 04:31:31;;;;;;;;;;;;;;;;;;348215;152;855918;-55
2022/06/05 04:32:33;;;;;;;;;;;;;;;;;;344844;154;855834;-55
2022/06/05 04:33:34;;;;;;;;;;;;;;;;;;345106;154;855788;-55
2022/06/05 04:34:35;;;;;;;;;;;;;;;;;;343790;154;855762;-55
2022/06/05 04:35:37;;;;;;;;;;;;;;;;;;347749;153;856343;-55
2022/06/05 04:36:38;;;;;;;;;;;;;;;;;;343871;155;855833;-54
2022/06/05 04:37:39;;;;;;;;;;;;;;;;;;342842;157;855943;-55
2022/06/05 04:38:41;;;;;;;;;;;;;;;;;;347841;152;855875;-55
2022/06/05 04:39:42;;;;;;;;;;;;;;;;;;347798;154;855723;-55
2022/06/05 04:40:43;;;;;;;;;;;;;;;;;;345884;153;855789;-55
2022/06/05 04:41:45;;;;;;;;;;;;;;;;;;341953;154;856138;-55
2022/06/05 04:42:46;;;;;;;;;;;;;;;;;;353215;152;856271;-54
2022/06/05 04:43:48;;;;;;;;;;;;;;;;;;349393;153;856830;-55
2022/06/05 04:44:49;;;;;;;;;;;;;;;;;;345230;154;855929;-55
2022/06/05 04:45:50;;;;;;;;;;;;;;;;;;349384;153;855840;-54
2022/06/05 04:46:52;;;;;;;;;;;;;;;;;;348530;154;857668;-56
2022/06/05 04:47:53;;;;;;;;;;;;;;;;;;344371;156;855860;-55
2022/06/05 04:48:54;;;;;;;;;;;;;;;;;;343879;157;856298;-55
2022/06/05 04:49:56;;;;;;;;;;;;;;;;;;344583;155;855715;-56
2022/06/05 04:50:57;;;;;;;;;;;;;;;;;;344396;157;858487;-54
2022/06/05 04:51:59;;;;;;;;;;;;;;;;;;344581;157;855937;-56
2022/06/05 04:53:01;;;;;;;;;;;;;;;;;;342327;155;855931;-55
2022/06/05 04:54:02;;;;;;;;;;;;;;;;;;355310;149;856030;-55
2022/06/05 04:55:04;;;;;;;;;;;;;;;;;;354305;152;856048;-55
2022/06/05 04:56:05;;;;;;;;;;;;;;;;;;353747;152;856147;-55
2022/06/05 04:57:06;;;;;;;;;;;;;;;;;;351200;152;855901;-55
2022/06/05 04:58:08;;;;;;;;;;;;;;;;;;356002;149;855875;-55
2022/06/05 04:59:09;;;;;;;;;;;;;;;;;;353107;149;855812;-57
2022/06/05 05:00:11;;;;;;;;;;;;;;;;;;351845;149;855869;-56
2022/06/05 05:01:12;;;;;;;;;;;;;;;;;;347644;152;855753;-55
2022/06/05 05:02:14;;;;;;;;;;;;;;;;;;353629;150;858485;-54
2022/06/05 05:03:15;;;;;;;;;;;;;;;;;;351352;150;855732;-57
2022/06/05 05:04:17;;;;;;;;;;;;;;;;;;353674;150;855241;-57
2022/06/05 05:05:18;;;;;;;;;;;;;;;;;;354007;150;855475;-57
2022/06/05 05:06:19;;;;;;;;;;;;;;;;;;353460;150;854948;-56
2022/06/05 05:07:21;;;;;;;;;;;;;;;;;;350331;152;855470;-56
2022/06/05 05:08:22;;;;;;;;;;;;;;;;;;349419;155;855025;-58
2022/06/05 05:09:23;;;;;;;;;;;;;;;;;;352053;152;854978;-56
2022/06/05 05:11:36;;;;;;;;;;;;;;;;;;348483;146;855749;-80
2022/06/05 05:12:37;;;;;;;;;;;;;;;;;;350691;153;855810;-80
2022/06/05 05:13:38;;;;;;;;;;;;;;;;;;347541;154;855525;-79
2022/06/05 05:14:40;;;;;;;;;;;;;;;;;;352071;152;857377;-79
2022/06/05 05:15:42;;;;;;;;;;;;;;;;;;349561;154;856295;-78
2022/06/05 05:16:43;;;;;;;;;;;;;;;;;;350353;153;855827;-80
2022/06/05 05:17:44;;;;;;;;;;;;;;;;;;349719;154;857508;-79
2022/06/05 05:18:48;;;;;;;;;;;;;;;;;;350722;154;855859;-80
2022/06/05 05:19:49;;;;;;;;;;;;;;;;;;351536;151;855513;-79
2022/06/05 05:20:50;;;;;;;;;;;;;;;;;;347754;154;855965;-80
2022/06/05 05:21:53;;;;;;;;;;;;;;;;;;350646;154;856781;-79
2022/06/05 05:22:54;;;;;;;;;;;;;;;;;;353830;151;855818;-79
2022/06/05 05:23:55;;;;;;;;;;;;;;;;;;353134;151;856815;-78
2022/06/05 05:24:57;;;;;;;;;;;;;;;;;;349227;153;856394;-79
2022/06/05 05:25:58;;;;;;;;;;;;;;;;;;348281;154;855983;-79
2022/06/05 05:27:00;;;;;;;;;;;;;;;;;;350828;154;855896;-78
2022/06/05 05:28:01;;;;;;;;;;;;;;;;;;350725;154;855984;-79
2022/06/05 05:29:03;;;;;;;;;;;;;;;;;;350779;152;855646;-78
2022/06/05 05:30:04;;;;;;;;;;;;;;;;;;352134;151;856136;-78
2022/06/05 05:31:06;;;;;;;;;;;;;;;;;;348306;153;856213;-78
2022/06/05 05:32:08;;;;;;;;;;;;;;;;;;347240;152;855902;-79
2022/06/05 05:33:09;;;;;;;;;;;;;;;;;;345116;154;856387;-79
2022/06/05 05:34:11;;;;;;;;;;;;;;;;;;348467;152;856096;-80
2022/06/05 05:35:13;;;;;;;;;;;;;;;;;;351545;152;855830;-80
2022/06/05 05:36:15;;;;;;;;;;;;;;;;;;352206;152;855885;-79
2022/06/05 05:37:16;;;;;;;;;;;;;;;;;;352464;152;856555;-79
2022/06/05 05:38:18;;;;;;;;;;;;;;;;;;349855;152;855860;-80
2022/06/05 05:42:07;;;;;;;;;;;;;;;;;;347500;155;855768;-80
2022/06/05 05:43:08;;;;;;;;;;;;;;;;;;348419;155;856618;-81
2022/06/05 05:44:10;;;;;;;;;;;;;;;;;;351243;152;855762;-80
2022/06/05 05:45:14;;;;;;;;;;;;;;;;;;349773;152;855744;-81
2022/06/05 05:46:17;;;;;;;;;;;;;;;;;;346865;154;855563;-81
2022/06/05 05:47:18;;;;;;;;;;;;;;;;;;346673;154;855819;-79
2022/06/05 05:48:19;;;;;;;;;;;;;;;;;;350705;152;856283;-79
2022/06/05 05:49:23;;;;;;;;;;;;;;;;;;352914;152;856059;-79
2022/06/05 05:50:24;;;;;;;;;;;;;;;;;;352438;152;856684;-79
2022/06/05 05:51:26;;;;;;;;;;;;;;;;;;351912;151;855813;-79
2022/06/05 05:52:28;;;;;;;;;;;;;;;;;;348285;152;856603;-79
2022/06/05 05:53:29;;;;;;;;;;;;;;;;;;351629;153;855790;-78
2022/06/05 05:54:30;;;;;;;;;;;;;;;;;;351363;152;855644;-79
2022/06/05 05:55:32;;;;;;;;;;;;;;;;;;354165;151;855716;-79
2022/06/05 05:56:33;;;;;;;;;;;;;;;;;;352335;152;855697;-79
2022/06/05 05:57:34;;;;;;;;;;;;;;;;;;348071;155;855691;-79
2022/06/05 05:58:36;;;;;;;;;;;;;;;;;;342845;155;855864;-79
2022/06/05 05:59:37;;;;;;;;;;;;;;;;;;348620;153;855838;-78
2022/06/05 06:00:39;;;;;;;;;;;;;;;;;;347642;153;855697;-79
2022/06/05 06:01:41;;;;;;;;;;;;;;;;;;353014;152;855760;-79
2022/06/05 06:02:42;;;;;;;;;;;;;;;;;;352754;151;856436;-79
2022/06/05 06:03:44;;;;;;;;;;;;;;;;;;350915;153;855591;-81
2022/06/05 06:04:45;;;;;;;;;;;;;;;;;;349208;154;855884;-78
2022/06/05 06:05:47;;;;;;;;;;;;;;;;;;348408;154;855775;-78
2022/06/05 06:06:51;;;;;;;;;;;;;;;;;;345263;155;855708;-79
2022/06/05 06:07:53;;;;;;;;;;;;;;;;;;347784;155;856301;-79
2022/06/05 06:08:54;;;;;;;;;;;;;;;;;;349510;154;856064;-79
2022/06/05 06:09:56;;;;;;;;;;;;;;;;;;347483;154;855596;-79
2022/06/05 06:10:57;;;;;;;;;;;;;;;;;;345702;154;855493;-78
2022/06/05 06:11:59;;;;;;;;;;;;;;;;;;349245;151;855977;-79
2022/06/05 06:13:01;;;;;;;;;;;;;;;;;;350788;151;856045;-79
2022/06/05 06:14:03;;;;;;;;;;;;;;;;;;348446;152;855900;-78
2022/06/05 06:15:04;;;;;;;;;;;;;;;;;;351437;151;855930;-78
2022/06/05 06:16:07;;;;;;;;;;;;;;;;;;347898;153;855959;-79
2022/06/05 06:17:09;;;;;;;;;;;;;;;;;;350089;152;855920;-78
2022/06/05 06:18:11;;;;;;;;;;;;;;;;;;351386;153;855835;-79
2022/06/05 06:19:13;;;;;;;;;;;;;;;;;;349421;152;855464;-79
2022/06/05 06:20:14;;;;;;;;;;;;;;;;;;348716;153;856065;-79
2022/06/05 06:21:15;;;;;;;;;;;;;;;;;;348929;152;855126;-78
2022/06/05 06:22:17;;;;;;;;;;;;;;;;;;342796;156;855767;-78
2022/06/05 06:23:18;;;;;;;;;;;;;;;;;;344060;154;855893;-80
2022/06/05 06:24:22;;;;;;;;;;;;;;;;;;351217;152;855774;-79
2022/06/05 06:25:23;;;;;;;;;;;;;;;;;;346248;154;855559;-79
2022/06/05 06:26:25;;;;;;;;;;;;;;;;;;349432;154;856244;-81
2022/06/05 06:27:27;;;;;;;;;;;;;;;;;;346625;154;855481;-81
2022/06/05 06:28:28;;;;;;;;;;;;;;;;;;351007;154;855957;-79
2022/06/05 06:29:30;;;;;;;;;;;;;;;;;;348889;152;855901;-81
2022/06/05 06:30:31;;;;;;;;;;;;;;;;;;350775;153;856361;-76
2022/06/05 06:31:32;;;;;;;;;;;;;;;;;;348844;152;855348;-79
2022/06/05 06:32:35;;;;;;;;;;;;;;;;;;348052;152;855720;-79
2022/06/05 06:33:37;;;;;;;;;;;;;;;;;;341832;155;855971;-79
2022/06/05 06:34:38;;;;;;;;;;;;;;;;;;341714;158;855179;-80
2022/06/05 06:35:40;;;;;;;;;;;;;;;;;;343181;155;856964;-80
2022/06/05 06:36:41;;;;;;;;;;;;;;;;;;343756;155;855911;-78
2022/06/05 06:37:43;;;;;;;;;;;;;;;;;;348267;152;856376;-83
2022/06/05 06:38:44;;;;;;;;;;;;;;;;;;342888;155;855546;-80
2022/06/05 06:39:46;;;;;;;;;;;;;;;;;;346286;155;855714;-82
2022/06/05 06:40:49;;;;;;;;;;;;;;;;;;349276;153;855675;-84
2022/06/05 06:41:52;;;;;;;;;;;;;;;;;;349751;154;855906;-83
2022/06/05 06:42:53;;;;;;;;;;;;;;;;;;348761;152;855872;-82
2022/06/05 06:43:55;;;;;;;;;;;;;;;;;;347577;154;857053;-81
2022/06/05 06:44:56;;;;;;;;;;;;;;;;;;348039;155;855682;-81
2022/06/05 06:45:58;;;;;;;;;;;;;;;;;;350884;154;855860;-82
2022/06/05 06:47:02;;;;;;;;;;;;;;;;;;350023;154;856014;-82
2022/06/05 06:48:03;;;;;;;;;;;;;;;;;;349035;153;855187;-82
2022/06/05 06:49:05;;;;;;;;;;;;;;;;;;348791;154;856793;-80
2022/06/05 06:50:07;;;;;;;;;;;;;;;;;;348779;152;855889;-81
2022/06/05 06:51:09;;;;;;;;;;;;;;;;;;341440;156;855682;-82
2022/06/05 06:52:11;;;;;;;;;;;;;;;;;;341995;155;855350;-82
2022/06/05 06:53:12;;;;;;;;;;;;;;;;;;345635;155;855420;-81
2022/06/05 06:54:16;;;;;;;;;;;;;;;;;;351405;154;856646;-82
2022/06/05 06:55:17;;;;;;;;;;;;;;;;;;348129;152;855744;-79
2022/06/05 06:56:19;;;;;;;;;;;;;;;;;;349699;152;855874;-79
2022/06/05 06:57:21;;;;;;;;;;;;;;;;;;349434;152;855346;-82
2022/06/05 06:58:22;;;;;;;;;;;;;;;;;;341976;155;855932;-80
2022/06/05 06:59:24;;;;;;;;;;;;;;;;;;336267;157;855768;-81
2022/06/05 07:00:26;;;;;;;;;;;;;;;;;;337261;158;855764;-77